Terminal Aerodrome Forecast
Issued by NWS

Home | Current Version | Previous Version | Text Only | Print | Product List | Glossary On
Versions: 1 2 3 4 5 6 7 8 9 10 11 12 13 14 15 16 17 18 19 20 21 22 23 24 25 26 27 28 29
943
FTUS43 KDLH 260537
TAFHIB
TAF
KHIB 260537Z 2606/2706 12006KT P6SM OVC009
     FM260900 09007KT 6SM BR OVC008
     FM261200 05004KT P6SM OVC007
     FM261900 01005KT P6SM OVC015
     FM262300 34004KT P6SM SCT015 BKN070
     FM270400 VRB03KT P6SM BKN015=

USA.gov is the U.S. government's official web portal to all federal, state and local government web resources and services.